sensor_id;sensor_type;location;lat;lon;timestamp;temperature;humidity
12060;DHT22;6091;51.432;6.880;2023-06-22T00:00:22;31.30;35.80
12060;DHT22;6091;51.432;6.880;2023-06-22T00:02:49;31.30;35.80
12060;DHT22;6091;51.432;6.880;2023-06-22T00:05:16;31.20;35.70
12060;DHT22;6091;51.432;6.880;2023-06-22T00:07:43;31.30;35.20
12060;DHT22;6091;51.432;6.880;2023-06-22T00:10:10;31.20;35.80
12060;DHT22;6091;51.432;6.880;2023-06-22T00:12:37;31.20;35.90
12060;DHT22;6091;51.432;6.880;2023-06-22T00:15:05;31.30;36.00
12060;DHT22;6091;51.432;6.880;2023-06-22T00:17:32;31.20;35.90
12060;DHT22;6091;51.432;6.880;2023-06-22T00:19:59;31.20;36.00
12060;DHT22;6091;51.432;6.880;2023-06-22T00:22:26;31.20;36.00
12060;DHT22;6091;51.432;6.880;2023-06-22T00:24:57;31.20;36.10
12060;DHT22;6091;51.432;6.880;2023-06-22T00:27:24;31.20;36.10
12060;DHT22;6091;51.432;6.880;2023-06-22T00:29:53;31.20;36.10
12060;DHT22;6091;51.432;6.880;2023-06-22T00:32:21;31.20;36.20
12060;DHT22;6091;51.432;6.880;2023-06-22T00:34:48;31.20;36.20
12060;DHT22;6091;51.432;6.880;2023-06-22T00:37:16;31.20;36.20
12060;DHT22;6091;51.432;6.880;2023-06-22T00:39:44;31.20;36.30
12060;DHT22;6091;51.432;6.880;2023-06-22T00:42:11;31.20;36.40
12060;DHT22;6091;51.432;6.880;2023-06-22T00:44:38;31.20;36.30
12060;DHT22;6091;51.432;6.880;2023-06-22T00:47:05;31.10;36.30
12060;DHT22;6091;51.432;6.880;2023-06-22T00:49:33;31.10;36.30
12060;DHT22;6091;51.432;6.880;2023-06-22T00:52:00;31.10;36.40
12060;DHT22;6091;51.432;6.880;2023-06-22T00:54:29;31.10;36.40
12060;DHT22;6091;51.432;6.880;2023-06-22T00:56:57;31.10;36.40
12060;DHT22;6091;51.432;6.880;2023-06-22T00:59:24;31.10;36.50
12060;DHT22;6091;51.432;6.880;2023-06-22T01:01:53;31.10;36.50
12060;DHT22;6091;51.432;6.880;2023-06-22T01:04:24;31.10;36.50
12060;DHT22;6091;51.432;6.880;2023-06-22T01:09:59;31.10;36.70
12060;DHT22;6091;51.432;6.880;2023-06-22T01:12:41;31.10;36.80
12060;DHT22;6091;51.432;6.880;2023-06-22T01:15:16;31.10;36.70
12060;DHT22;6091;51.432;6.880;2023-06-22T01:17:48;31.00;36.70
12060;DHT22;6091;51.432;6.880;2023-06-22T01:20:20;31.00;36.70
12060;DHT22;6091;51.432;6.880;2023-06-22T01:23:27;31.00;36.70
12060;DHT22;6091;51.432;6.880;2023-06-22T01:26:18;31.00;36.90
12060;DHT22;6091;51.432;6.880;2023-06-22T01:28:55;31.00;36.90
12060;DHT22;6091;51.432;6.880;2023-06-22T01:31:26;31.00;36.90
12060;DHT22;6091;51.432;6.880;2023-06-22T01:34:04;31.00;36.90
12060;DHT22;6091;51.432;6.880;2023-06-22T01:36:33;31.00;37.00
12060;DHT22;6091;51.432;6.880;2023-06-22T01:39:02;31.00;36.90
12060;DHT22;6091;51.432;6.880;2023-06-22T01:41:35;31.00;37.00
12060;DHT22;6091;51.432;6.880;2023-06-22T01:44:07;30.90;37.10
12060;DHT22;6091;51.432;6.880;2023-06-22T01:46:37;30.90;37.10
12060;DHT22;6091;51.432;6.880;2023-06-22T01:49:06;30.90;37.10
12060;DHT22;6091;51.432;6.880;2023-06-22T01:51:33;30.90;37.10
12060;DHT22;6091;51.432;6.880;2023-06-22T01:54:01;30.90;37.20
12060;DHT22;6091;51.432;6.880;2023-06-22T01:56:29;30.90;37.30
12060;DHT22;6091;51.432;6.880;2023-06-22T02:01:54;30.90;37.40
12060;DHT22;6091;51.432;6.880;2023-06-22T02:04:36;30.90;37.30
12060;DHT22;6091;51.432;6.880;2023-06-22T02:07:39;30.90;37.50
12060;DHT22;6091;51.432;6.880;2023-06-22T02:10:13;30.90;37.40
12060;DHT22;6091;51.432;6.880;2023-06-22T02:12:44;30.90;37.40
12060;DHT22;6091;51.432;6.880;2023-06-22T02:15:13;30.90;37.40
12060;DHT22;6091;51.432;6.880;2023-06-22T02:17:40;30.80;37.40
12060;DHT22;6091;51.432;6.880;2023-06-22T02:20:13;30.80;37.50
12060;DHT22;6091;51.432;6.880;2023-06-22T02:22:41;30.80;37.50
12060;DHT22;6091;51.432;6.880;2023-06-22T02:25:08;30.80;37.60
12060;DHT22;6091;51.432;6.880;2023-06-22T02:27:35;30.80;37.60
12060;DHT22;6091;51.432;6.880;2023-06-22T02:30:02;30.80;37.60
12060;DHT22;6091;51.432;6.880;2023-06-22T02:32:30;30.70;37.60
12060;DHT22;6091;51.432;6.880;2023-06-22T02:34:57;30.80;37.70
12060;DHT22;6091;51.432;6.880;2023-06-22T02:37:24;30.80;37.70
12060;DHT22;6091;51.432;6.880;2023-06-22T02:39:52;30.80;37.80
12060;DHT22;6091;51.432;6.880;2023-06-22T02:42:19;30.70;37.70
12060;DHT22;6091;51.432;6.880;2023-06-22T02:44:48;30.80;37.80
12060;DHT22;6091;51.432;6.880;2023-06-22T02:47:15;30.70;37.80
12060;DHT22;6091;51.432;6.880;2023-06-22T02:49:43;30.70;37.90
12060;DHT22;6091;51.432;6.880;2023-06-22T02:52:12;30.70;37.90
12060;DHT22;6091;51.432;6.880;2023-06-22T02:54:40;30.70;37.90
12060;DHT22;6091;51.432;6.880;2023-06-22T02:57:07;30.70;37.90
12060;DHT22;6091;51.432;6.880;2023-06-22T02:59:40;30.70;37.90
12060;DHT22;6091;51.432;6.880;2023-06-22T03:02:09;30.70;38.00
12060;DHT22;6091;51.432;6.880;2023-06-22T03:04:36;30.60;37.90
12060;DHT22;6091;51.432;6.880;2023-06-22T03:07:03;30.70;38.00
12060;DHT22;6091;51.432;6.880;2023-06-22T03:09:32;30.60;38.00
12060;DHT22;6091;51.432;6.880;2023-06-22T03:11:59;30.60;38.00
12060;DHT22;6091;51.432;6.880;2023-06-22T03:14:26;30.60;38.00
12060;DHT22;6091;51.432;6.880;2023-06-22T03:16:53;30.60;38.10
12060;DHT22;6091;51.432;6.880;2023-06-22T03:19:20;30.60;38.10
12060;DHT22;6091;51.432;6.880;2023-06-22T03:21:48;30.60;38.10
12060;DHT22;6091;51.432;6.880;2023-06-22T03:24:15;30.60;38.10
12060;DHT22;6091;51.432;6.880;2023-06-22T03:26:42;30.60;38.20
12060;DHT22;6091;51.432;6.880;2023-06-22T03:29:09;30.10;38.00
12060;DHT22;6091;51.432;6.880;2023-06-22T03:31:36;30.60;38.30
12060;DHT22;6091;51.432;6.880;2023-06-22T03:34:03;30.50;38.20
12060;DHT22;6091;51.432;6.880;2023-06-22T03:36:30;30.50;38.30
12060;DHT22;6091;51.432;6.880;2023-06-22T03:38:57;30.50;38.30
12060;DHT22;6091;51.432;6.880;2023-06-22T03:41:24;30.50;38.30
12060;DHT22;6091;51.432;6.880;2023-06-22T03:43:52;30.50;38.40
12060;DHT22;6091;51.432;6.880;2023-06-22T03:46:19;30.50;38.40
12060;DHT22;6091;51.432;6.880;2023-06-22T03:48:47;30.50;38.40
12060;DHT22;6091;51.432;6.880;2023-06-22T03:51:14;30.50;38.40
12060;DHT22;6091;51.432;6.880;2023-06-22T03:53:41;30.50;38.50
12060;DHT22;6091;51.432;6.880;2023-06-22T03:56:08;30.50;38.50
12060;DHT22;6091;51.432;6.880;2023-06-22T03:58:35;30.50;38.50
12060;DHT22;6091;51.432;6.880;2023-06-22T04:01:03;30.50;38.60
12060;DHT22;6091;51.432;6.880;2023-06-22T04:03:30;30.50;38.60
12060;DHT22;6091;51.432;6.880;2023-06-22T04:05:58;30.50;38.60
12060;DHT22;6091;51.432;6.880;2023-06-22T04:08:25;30.50;38.60
12060;DHT22;6091;51.432;6.880;2023-06-22T04:10:52;30.40;38.50
12060;DHT22;6091;51.432;6.880;2023-06-22T04:13:19;30.40;38.60
12060;DHT22;6091;51.432;6.880;2023-06-22T04:15:46;30.50;39.30
12060;DHT22;6091;51.432;6.880;2023-06-22T04:18:13;30.50;38.70
12060;DHT22;6091;51.432;6.880;2023-06-22T04:20:40;30.50;38.70
12060;DHT22;6091;51.432;6.880;2023-06-22T04:23:07;30.50;38.70
12060;DHT22;6091;51.432;6.880;2023-06-22T04:25:34;30.50;38.80
12060;DHT22;6091;51.432;6.880;2023-06-22T04:28:01;30.50;38.80
12060;DHT22;6091;51.432;6.880;2023-06-22T04:30:32;30.50;38.80
12060;DHT22;6091;51.432;6.880;2023-06-22T04:33:10;30.50;38.80
12060;DHT22;6091;51.432;6.880;2023-06-22T04:35:37;30.60;38.90
12060;DHT22;6091;51.432;6.880;2023-06-22T04:38:07;30.50;38.80
12060;DHT22;6091;51.432;6.880;2023-06-22T04:40:34;30.60;38.90
12060;DHT22;6091;51.432;6.880;2023-06-22T04:43:01;30.50;38.90
12060;DHT22;6091;51.432;6.880;2023-06-22T04:45:29;30.60;39.00
12060;DHT22;6091;51.432;6.880;2023-06-22T04:47:56;30.60;38.90
12060;DHT22;6091;51.432;6.880;2023-06-22T04:50:23;30.60;38.90
12060;DHT22;6091;51.432;6.880;2023-06-22T04:52:51;30.60;38.90
12060;DHT22;6091;51.432;6.880;2023-06-22T04:55:19;30.60;38.90
12060;DHT22;6091;51.432;6.880;2023-06-22T04:57:47;30.60;38.90
12060;DHT22;6091;51.432;6.880;2023-06-22T05:00:19;30.60;38.90
12060;DHT22;6091;51.432;6.880;2023-06-22T05:02:50;30.60;38.90
12060;DHT22;6091;51.432;6.880;2023-06-22T05:05:17;30.60;38.90
12060;DHT22;6091;51.432;6.880;2023-06-22T05:07:46;30.60;39.00
12060;DHT22;6091;51.432;6.880;2023-06-22T05:10:17;30.60;39.00
12060;DHT22;6091;51.432;6.880;2023-06-22T05:12:44;30.60;39.00
12060;DHT22;6091;51.432;6.880;2023-06-22T05:15:12;30.60;39.00
12060;DHT22;6091;51.432;6.880;2023-06-22T05:17:39;30.60;39.00
12060;DHT22;6091;51.432;6.880;2023-06-22T05:20:10;30.60;38.90
12060;DHT22;6091;51.432;6.880;2023-06-22T05:22:39;30.60;39.00
12060;DHT22;6091;51.432;6.880;2023-06-22T05:25:08;30.60;39.10
12060;DHT22;6091;51.432;6.880;2023-06-22T05:27:38;30.60;39.10
12060;DHT22;6091;51.432;6.880;2023-06-22T05:30:11;30.60;39.10
12060;DHT22;6091;51.432;6.880;2023-06-22T05:32:38;30.60;39.70
12060;DHT22;6091;51.432;6.880;2023-06-22T05:35:05;30.60;39.00
12060;DHT22;6091;51.432;6.880;2023-06-22T05:37:32;30.60;39.10
12060;DHT22;6091;51.432;6.880;2023-06-22T05:40:00;30.60;39.10
12060;DHT22;6091;51.432;6.880;2023-06-22T05:42:27;30.60;39.10
12060;DHT22;6091;51.432;6.880;2023-06-22T05:44:54;30.60;39.10
12060;DHT22;6091;51.432;6.880;2023-06-22T05:47:21;30.60;39.10
12060;DHT22;6091;51.432;6.880;2023-06-22T05:49:50;30.60;39.30
12060;DHT22;6091;51.432;6.880;2023-06-22T05:52:19;30.60;39.20
12060;DHT22;6091;51.432;6.880;2023-06-22T05:54:46;30.60;39.60
12060;DHT22;6091;51.432;6.880;2023-06-22T05:57:13;30.60;39.70
12060;DHT22;6091;51.432;6.880;2023-06-22T05:59:40;30.60;39.50
12060;DHT22;6091;51.432;6.880;2023-06-22T06:02:07;30.60;40.00
12060;DHT22;6091;51.432;6.880;2023-06-22T06:04:35;30.60;40.00
12060;DHT22;6091;51.432;6.880;2023-06-22T06:07:02;30.60;40.00
12060;DHT22;6091;51.432;6.880;2023-06-22T06:09:29;30.60;40.00
12060;DHT22;6091;51.432;6.880;2023-06-22T06:11:56;30.60;40.10
12060;DHT22;6091;51.432;6.880;2023-06-22T06:14:23;30.50;40.20
12060;DHT22;6091;51.432;6.880;2023-06-22T06:16:50;30.50;40.40
12060;DHT22;6091;51.432;6.880;2023-06-22T06:19:17;30.50;40.50
12060;DHT22;6091;51.432;6.880;2023-06-22T06:21:44;30.50;40.50
12060;DHT22;6091;51.432;6.880;2023-06-22T06:24:11;30.40;40.60
12060;DHT22;6091;51.432;6.880;2023-06-22T06:26:39;30.40;40.80
12060;DHT22;6091;51.432;6.880;2023-06-22T06:29:09;30.40;40.90
12060;DHT22;6091;51.432;6.880;2023-06-22T06:31:36;30.40;41.10
12060;DHT22;6091;51.432;6.880;2023-06-22T06:34:03;30.30;41.20
12060;DHT22;6091;51.432;6.880;2023-06-22T06:36:30;30.30;41.50
12060;DHT22;6091;51.432;6.880;2023-06-22T06:38:57;30.30;41.80
12060;DHT22;6091;51.432;6.880;2023-06-22T06:41:24;30.30;42.00
12060;DHT22;6091;51.432;6.880;2023-06-22T06:43:51;30.20;42.00
12060;DHT22;6091;51.432;6.880;2023-06-22T06:46:19;30.20;42.20
12060;DHT22;6091;51.432;6.880;2023-06-22T06:48:46;30.20;42.30
12060;DHT22;6091;51.432;6.880;2023-06-22T06:51:13;30.10;42.30
12060;DHT22;6091;51.432;6.880;2023-06-22T06:53:40;30.10;42.50
12060;DHT22;6091;51.432;6.880;2023-06-22T06:56:07;30.00;42.40
12060;DHT22;6091;51.432;6.880;2023-06-22T06:58:40;30.00;42.60
12060;DHT22;6091;51.432;6.880;2023-06-22T07:01:08;29.90;42.70
12060;DHT22;6091;51.432;6.880;2023-06-22T07:03:36;29.80;42.80
12060;DHT22;6091;51.432;6.880;2023-06-22T07:06:03;29.80;43.00
12060;DHT22;6091;51.432;6.880;2023-06-22T07:08:30;29.80;43.10
12060;DHT22;6091;51.432;6.880;2023-06-22T07:10:57;29.70;43.30
12060;DHT22;6091;51.432;6.880;2023-06-22T07:13:24;29.70;43.30
12060;DHT22;6091;51.432;6.880;2023-06-22T07:15:51;29.70;43.40
12060;DHT22;6091;51.432;6.880;2023-06-22T07:18:18;29.70;43.70
12060;DHT22;6091;51.432;6.880;2023-06-22T07:20:45;29.70;43.80
12060;DHT22;6091;51.432;6.880;2023-06-22T07:23:12;29.60;43.80
12060;DHT22;6091;51.432;6.880;2023-06-22T07:25:39;29.60;43.80
12060;DHT22;6091;51.432;6.880;2023-06-22T07:28:07;29.80;43.80
12060;DHT22;6091;51.432;6.880;2023-06-22T07:30:34;29.50;43.70
12060;DHT22;6091;51.432;6.880;2023-06-22T07:33:02;29.40;43.80
12060;DHT22;6091;51.432;6.880;2023-06-22T07:35:31;29.30;43.80
12060;DHT22;6091;51.432;6.880;2023-06-22T07:37:58;29.30;43.80
12060;DHT22;6091;51.432;6.880;2023-06-22T07:40:29;29.20;44.10
12060;DHT22;6091;51.432;6.880;2023-06-22T07:42:57;29.20;44.30
12060;DHT22;6091;51.432;6.880;2023-06-22T07:45:25;29.10;44.30
12060;DHT22;6091;51.432;6.880;2023-06-22T07:47:52;29.10;44.40
12060;DHT22;6091;51.432;6.880;2023-06-22T07:50:19;29.00;44.40
12060;DHT22;6091;51.432;6.880;2023-06-22T07:52:47;29.10;44.60
12060;DHT22;6091;51.432;6.880;2023-06-22T07:55:14;29.10;44.60
12060;DHT22;6091;51.432;6.880;2023-06-22T07:57:41;29.10;44.90
12060;DHT22;6091;51.432;6.880;2023-06-22T08:00:12;29.10;44.90
12060;DHT22;6091;51.432;6.880;2023-06-22T08:02:45;29.20;45.00
12060;DHT22;6091;51.432;6.880;2023-06-22T08:05:14;29.20;44.80
12060;DHT22;6091;51.432;6.880;2023-06-22T08:07:45;29.10;44.80
12060;DHT22;6091;51.432;6.880;2023-06-22T08:10:15;29.20;44.80
12060;DHT22;6091;51.432;6.880;2023-06-22T08:12:42;29.20;44.90
12060;DHT22;6091;51.432;6.880;2023-06-22T08:15:09;29.20;44.90
12060;DHT22;6091;51.432;6.880;2023-06-22T08:17:37;29.20;45.00
12060;DHT22;6091;51.432;6.880;2023-06-22T08:20:06;29.20;45.10
12060;DHT22;6091;51.432;6.880;2023-06-22T08:22:41;29.20;45.20
12060;DHT22;6091;51.432;6.880;2023-06-22T08:25:09;29.30;45.20
12060;DHT22;6091;51.432;6.880;2023-06-22T08:27:37;29.20;45.20
12060;DHT22;6091;51.432;6.880;2023-06-22T08:30:05;29.30;45.20
12060;DHT22;6091;51.432;6.880;2023-06-22T08:32:34;29.30;45.30
12060;DHT22;6091;51.432;6.880;2023-06-22T08:35:01;29.30;45.30
12060;DHT22;6091;51.432;6.880;2023-06-22T08:37:28;29.30;45.20
12060;DHT22;6091;51.432;6.880;2023-06-22T08:40:04;29.30;45.10
12060;DHT22;6091;51.432;6.880;2023-06-22T08:42:37;29.40;45.10
12060;DHT22;6091;51.432;6.880;2023-06-22T08:45:05;29.40;45.00
12060;DHT22;6091;51.432;6.880;2023-06-22T08:47:33;29.40;45.00
12060;DHT22;6091;51.432;6.880;2023-06-22T08:50:00;29.40;45.00
12060;DHT22;6091;51.432;6.880;2023-06-22T08:52:30;29.40;45.00
12060;DHT22;6091;51.432;6.880;2023-06-22T08:54:57;29.40;45.10
12060;DHT22;6091;51.432;6.880;2023-06-22T08:57:27;29.40;45.30
12060;DHT22;6091;51.432;6.880;2023-06-22T08:59:55;29.50;45.40
12060;DHT22;6091;51.432;6.880;2023-06-22T09:02:28;29.20;45.10
12060;DHT22;6091;51.432;6.880;2023-06-22T09:04:58;29.50;45.20
12060;DHT22;6091;51.432;6.880;2023-06-22T09:07:26;29.50;45.10
12060;DHT22;6091;51.432;6.880;2023-06-22T09:09:53;29.50;45.00
12060;DHT22;6091;51.432;6.880;2023-06-22T09:12:20;29.50;45.10
12060;DHT22;6091;51.432;6.880;2023-06-22T09:14:51;29.50;45.10
12060;DHT22;6091;51.432;6.880;2023-06-22T09:17:18;29.60;45.10
12060;DHT22;6091;51.432;6.880;2023-06-22T09:19:46;29.60;45.10
12060;DHT22;6091;51.432;6.880;2023-06-22T09:22:14;29.60;45.10
12060;DHT22;6091;51.432;6.880;2023-06-22T09:24:41;29.60;45.10
12060;DHT22;6091;51.432;6.880;2023-06-22T09:27:08;29.60;45.10
12060;DHT22;6091;51.432;6.880;2023-06-22T09:29:35;29.60;45.30
12060;DHT22;6091;51.432;6.880;2023-06-22T09:32:02;29.70;45.30
12060;DHT22;6091;51.432;6.880;2023-06-22T09:34:30;29.70;45.30
12060;DHT22;6091;51.432;6.880;2023-06-22T09:36:58;29.70;45.30
12060;DHT22;6091;51.432;6.880;2023-06-22T09:39:27;29.70;45.50
12060;DHT22;6091;51.432;6.880;2023-06-22T09:41:54;29.70;45.60
12060;DHT22;6091;51.432;6.880;2023-06-22T09:44:21;29.60;45.50
12060;DHT22;6091;51.432;6.880;2023-06-22T09:46:48;29.60;45.50
12060;DHT22;6091;51.432;6.880;2023-06-22T09:49:15;29.60;45.80
12060;DHT22;6091;51.432;6.880;2023-06-22T09:51:42;29.50;45.80
12060;DHT22;6091;51.432;6.880;2023-06-22T09:54:09;29.40;45.90
12060;DHT22;6091;51.432;6.880;2023-06-22T09:56:36;29.40;46.00
12060;DHT22;6091;51.432;6.880;2023-06-22T09:59:04;29.40;46.20
12060;DHT22;6091;51.432;6.880;2023-06-22T10:01:44;29.30;46.10
12060;DHT22;6091;51.432;6.880;2023-06-22T10:04:11;29.40;46.40
12060;DHT22;6091;51.432;6.880;2023-06-22T10:06:38;29.40;46.60
12060;DHT22;6091;51.432;6.880;2023-06-22T10:09:07;29.30;46.50
12060;DHT22;6091;51.432;6.880;2023-06-22T10:11:35;29.40;46.50
12060;DHT22;6091;51.432;6.880;2023-06-22T10:14:03;29.30;46.60
12060;DHT22;6091;51.432;6.880;2023-06-22T10:16:31;29.40;46.70
12060;DHT22;6091;51.432;6.880;2023-06-22T10:18:58;29.30;46.60
12060;DHT22;6091;51.432;6.880;2023-06-22T10:21:26;29.30;46.60
12060;DHT22;6091;51.432;6.880;2023-06-22T10:23:55;29.30;46.50
12060;DHT22;6091;51.432;6.880;2023-06-22T10:26:22;29.30;46.60
12060;DHT22;6091;51.432;6.880;2023-06-22T10:28:49;29.30;46.70
12060;DHT22;6091;51.432;6.880;2023-06-22T10:31:33;29.30;46.70
12060;DHT22;6091;51.432;6.880;2023-06-22T10:34:00;29.30;47.20
12060;DHT22;6091;51.432;6.880;2023-06-22T10:36:27;29.40;46.90
12060;DHT22;6091;51.432;6.880;2023-06-22T10:38:54;29.40;46.90
12060;DHT22;6091;51.432;6.880;2023-06-22T10:41:22;29.40;46.80
12060;DHT22;6091;51.432;6.880;2023-06-22T10:43:49;29.40;46.80
12060;DHT22;6091;51.432;6.880;2023-06-22T10:46:16;29.50;46.90
12060;DHT22;6091;51.432;6.880;2023-06-22T10:48:43;29.50;47.60
12060;DHT22;6091;51.432;6.880;2023-06-22T10:51:10;29.50;46.80
12060;DHT22;6091;51.432;6.880;2023-06-22T10:53:37;29.50;46.80
12060;DHT22;6091;51.432;6.880;2023-06-22T10:56:04;29.50;46.70
12060;DHT22;6091;51.432;6.880;2023-06-22T10:58:32;29.60;46.80
12060;DHT22;6091;51.432;6.880;2023-06-22T11:00:59;29.60;46.80
12060;DHT22;6091;51.432;6.880;2023-06-22T11:03:26;29.60;46.70
12060;DHT22;6091;51.432;6.880;2023-06-22T11:05:53;29.60;46.70
12060;DHT22;6091;51.432;6.880;2023-06-22T11:08:20;29.70;46.60
12060;DHT22;6091;51.432;6.880;2023-06-22T11:10:47;29.70;46.60
12060;DHT22;6091;51.432;6.880;2023-06-22T11:13:14;29.70;46.60
12060;DHT22;6091;51.432;6.880;2023-06-22T11:15:41;29.70;46.60
12060;DHT22;6091;51.432;6.880;2023-06-22T11:18:08;29.70;46.50
12060;DHT22;6091;51.432;6.880;2023-06-22T11:20:35;29.80;46.50
12060;DHT22;6091;51.432;6.880;2023-06-22T11:23:05;29.80;46.60
12060;DHT22;6091;51.432;6.880;2023-06-22T11:25:35;29.90;46.60
12060;DHT22;6091;51.432;6.880;2023-06-22T11:28:04;29.90;46.60
12060;DHT22;6091;51.432;6.880;2023-06-22T11:30:32;29.90;46.60
12060;DHT22;6091;51.432;6.880;2023-06-22T11:32:59;30.00;47.00
12060;DHT22;6091;51.432;6.880;2023-06-22T11:35:27;30.00;46.90
12060;DHT22;6091;51.432;6.880;2023-06-22T11:37:53;30.10;47.00
12060;DHT22;6091;51.432;6.880;2023-06-22T11:40:22;30.10;47.00
12060;DHT22;6091;51.432;6.880;2023-06-22T11:42:49;30.10;46.90
12060;DHT22;6091;51.432;6.880;2023-06-22T11:45:16;30.10;46.90
12060;DHT22;6091;51.432;6.880;2023-06-22T11:47:46;30.20;47.30
12060;DHT22;6091;51.432;6.880;2023-06-22T11:50:14;30.20;47.20
12060;DHT22;6091;51.432;6.880;2023-06-22T11:52:41;30.20;47.40
12060;DHT22;6091;51.432;6.880;2023-06-22T11:55:08;30.30;47.50
12060;DHT22;6091;51.432;6.880;2023-06-22T11:57:38;30.30;48.00
12060;DHT22;6091;51.432;6.880;2023-06-22T12:00:19;30.30;48.10
12060;DHT22;6091;51.432;6.880;2023-06-22T12:02:47;30.40;47.90
12060;DHT22;6091;51.432;6.880;2023-06-22T12:05:14;30.40;47.80
12060;DHT22;6091;51.432;6.880;2023-06-22T12:07:41;30.40;47.80
12060;DHT22;6091;51.432;6.880;2023-06-22T12:10:09;30.40;47.90
12060;DHT22;6091;51.432;6.880;2023-06-22T12:12:36;30.40;48.00
12060;DHT22;6091;51.432;6.880;2023-06-22T12:15:03;30.40;48.00
12060;DHT22;6091;51.432;6.880;2023-06-22T12:17:32;30.40;48.20
12060;DHT22;6091;51.432;6.880;2023-06-22T12:20:00;30.40;48.20
12060;DHT22;6091;51.432;6.880;2023-06-22T12:22:28;30.40;48.20
12060;DHT22;6091;51.432;6.880;2023-06-22T12:24:55;30.40;48.30
12060;DHT22;6091;51.432;6.880;2023-06-22T12:27:22;30.40;48.30
12060;DHT22;6091;51.432;6.880;2023-06-22T12:29:49;30.40;48.70
12060;DHT22;6091;51.432;6.880;2023-06-22T12:32:16;30.50;48.90
12060;DHT22;6091;51.432;6.880;2023-06-22T12:34:44;30.40;48.90
12060;DHT22;6091;51.432;6.880;2023-06-22T12:37:11;30.40;49.10
12060;DHT22;6091;51.432;6.880;2023-06-22T12:39:40;30.50;49.00
12060;DHT22;6091;51.432;6.880;2023-06-22T12:42:08;30.50;49.00
12060;DHT22;6091;51.432;6.880;2023-06-22T12:44:38;30.50;49.10
12060;DHT22;6091;51.432;6.880;2023-06-22T12:47:06;30.50;49.10
12060;DHT22;6091;51.432;6.880;2023-06-22T12:49:35;30.50;49.10
12060;DHT22;6091;51.432;6.880;2023-06-22T12:52:03;30.50;49.00
12060;DHT22;6091;51.432;6.880;2023-06-22T12:54:35;30.50;49.00
12060;DHT22;6091;51.432;6.880;2023-06-22T12:57:19;30.50;49.10
12060;DHT22;6091;51.432;6.880;2023-06-22T12:59:46;30.50;49.00
12060;DHT22;6091;51.432;6.880;2023-06-22T13:02:13;30.40;49.10
12060;DHT22;6091;51.432;6.880;2023-06-22T13:04:40;30.40;49.10
12060;DHT22;6091;51.432;6.880;2023-06-22T13:07:08;30.40;49.20
12060;DHT22;6091;51.432;6.880;2023-06-22T13:09:48;30.40;49.20
12060;DHT22;6091;51.432;6.880;2023-06-22T13:12:22;30.40;49.20
12060;DHT22;6091;51.432;6.880;2023-06-22T13:14:49;30.40;49.30
12060;DHT22;6091;51.432;6.880;2023-06-22T13:17:16;30.40;49.40
12060;DHT22;6091;51.432;6.880;2023-06-22T13:19:43;30.40;49.70
12060;DHT22;6091;51.432;6.880;2023-06-22T13:22:31;30.40;49.60
12060;DHT22;6091;51.432;6.880;2023-06-22T13:25:00;30.50;49.90
12060;DHT22;6091;51.432;6.880;2023-06-22T13:27:28;30.40;49.40
12060;DHT22;6091;51.432;6.880;2023-06-22T13:29:55;30.50;49.60
12060;DHT22;6091;51.432;6.880;2023-06-22T13:32:22;30.80;49.80
12060;DHT22;6091;51.432;6.880;2023-06-22T13:34:50;30.50;49.60
12060;DHT22;6091;51.432;6.880;2023-06-22T13:37:18;30.50;49.60
12060;DHT22;6091;51.432;6.880;2023-06-22T13:39:45;30.50;49.70
12060;DHT22;6091;51.432;6.880;2023-06-22T13:42:12;30.50;49.90
12060;DHT22;6091;51.432;6.880;2023-06-22T13:44:39;30.50;49.80
12060;DHT22;6091;51.432;6.880;2023-06-22T13:47:07;30.50;49.80
12060;DHT22;6091;51.432;6.880;2023-06-22T13:49:34;30.50;49.80
12060;DHT22;6091;51.432;6.880;2023-06-22T13:52:01;30.50;49.90
12060;DHT22;6091;51.432;6.880;2023-06-22T13:54:29;30.50;49.90
12060;DHT22;6091;51.432;6.880;2023-06-22T13:56:59;30.50;49.90
12060;DHT22;6091;51.432;6.880;2023-06-22T13:59:26;30.50;49.80
12060;DHT22;6091;51.432;6.880;2023-06-22T14:01:54;30.60;50.00
12060;DHT22;6091;51.432;6.880;2023-06-22T14:04:24;30.60;49.90
12060;DHT22;6091;51.432;6.880;2023-06-22T14:06:52;30.60;50.10
12060;DHT22;6091;51.432;6.880;2023-06-22T14:09:22;30.60;49.90
12060;DHT22;6091;51.432;6.880;2023-06-22T14:11:50;30.60;49.90
12060;DHT22;6091;51.432;6.880;2023-06-22T14:14:17;30.60;50.00
12060;DHT22;6091;51.432;6.880;2023-06-22T14:16:43;30.60;49.90
12060;DHT22;6091;51.432;6.880;2023-06-22T14:19:10;30.60;50.10
12060;DHT22;6091;51.432;6.880;2023-06-22T14:21:37;30.60;50.30
12060;DHT22;6091;51.432;6.880;2023-06-22T14:24:04;30.50;50.10
12060;DHT22;6091;51.432;6.880;2023-06-22T14:26:32;30.50;50.00
12060;DHT22;6091;51.432;6.880;2023-06-22T14:28:58;30.50;50.10
12060;DHT22;6091;51.432;6.880;2023-06-22T14:31:25;30.50;50.70
12060;DHT22;6091;51.432;6.880;2023-06-22T14:33:52;30.50;50.10
12060;DHT22;6091;51.432;6.880;2023-06-22T14:36:19;30.50;50.10
12060;DHT22;6091;51.432;6.880;2023-06-22T14:38:46;30.50;50.10
12060;DHT22;6091;51.432;6.880;2023-06-22T14:41:13;30.50;50.10
12060;DHT22;6091;51.432;6.880;2023-06-22T14:43:49;30.50;50.10
12060;DHT22;6091;51.432;6.880;2023-06-22T14:46:22;30.50;50.20
12060;DHT22;6091;51.432;6.880;2023-06-22T14:48:49;30.50;50.10
12060;DHT22;6091;51.432;6.880;2023-06-22T14:51:16;30.50;50.20
12060;DHT22;6091;51.432;6.880;2023-06-22T14:53:44;30.50;50.20
12060;DHT22;6091;51.432;6.880;2023-06-22T14:56:13;30.50;50.10
12060;DHT22;6091;51.432;6.880;2023-06-22T14:58:43;30.50;50.00
12060;DHT22;6091;51.432;6.880;2023-06-22T15:01:13;30.50;50.00
12060;DHT22;6091;51.432;6.880;2023-06-22T15:03:41;30.60;50.00
12060;DHT22;6091;51.432;6.880;2023-06-22T15:06:09;30.60;50.00
12060;DHT22;6091;51.432;6.880;2023-06-22T15:08:40;30.60;50.10
12060;DHT22;6091;51.432;6.880;2023-06-22T15:11:07;30.60;50.10
12060;DHT22;6091;51.432;6.880;2023-06-22T15:13:35;30.60;50.10
12060;DHT22;6091;51.432;6.880;2023-06-22T15:16:06;30.60;50.10
12060;DHT22;6091;51.432;6.880;2023-06-22T15:18:34;30.60;50.00
12060;DHT22;6091;51.432;6.880;2023-06-22T15:21:03;30.60;50.00
12060;DHT22;6091;51.432;6.880;2023-06-22T15:23:31;30.60;50.10
12060;DHT22;6091;51.432;6.880;2023-06-22T15:26:02;30.70;50.10
12060;DHT22;6091;51.432;6.880;2023-06-22T15:28:32;30.70;50.10
12060;DHT22;6091;51.432;6.880;2023-06-22T15:31:00;30.70;50.10
12060;DHT22;6091;51.432;6.880;2023-06-22T15:33:27;30.70;50.40
12060;DHT22;6091;51.432;6.880;2023-06-22T15:35:54;30.60;50.00
12060;DHT22;6091;51.432;6.880;2023-06-22T15:38:22;30.60;50.10
12060;DHT22;6091;51.432;6.880;2023-06-22T15:40:50;30.60;50.00
12060;DHT22;6091;51.432;6.880;2023-06-22T15:43:17;30.60;50.50
12060;DHT22;6091;51.432;6.880;2023-06-22T15:45:44;30.60;49.90
12060;DHT22;6091;51.432;6.880;2023-06-22T15:48:11;30.60;49.90
12060;DHT22;6091;51.432;6.880;2023-06-22T15:50:38;30.60;49.80
12060;DHT22;6091;51.432;6.880;2023-06-22T15:53:05;30.60;49.80
12060;DHT22;6091;51.432;6.880;2023-06-22T15:55:32;30.60;49.70
12060;DHT22;6091;51.432;6.880;2023-06-22T15:57:59;30.50;49.70